Time;durP1;ratioP1;P1;durP2;ratioP2;P2;SDS_P1;SDS_P2;PMS_P1;PMS_P2;Temp;Humidity;BMP_temperature;BMP_pressure;BME280_temperature;BME280_humidity;BME280_pressure;Samples;Min_cycle;Max_cycle;Signal;HPM_P1;HPM_P2
2020/12/28 00:01:18;;;;;;;;;13.67;13.00;;;;;;;;5070683;28;9550;-74
2020/12/28 00:03:45;;;;;;;;;21.00;17.67;;;;;;;;5070172;28;9561;-77
2020/12/28 00:06:11;;;;;;;;;21.67;18.00;;;;;;;;5070603;28;8938;-74
2020/12/28 00:08:37;;;;;;;;;29.00;27.67;;;;;;;;5070448;28;8849;-74
2020/12/28 00:11:03;;;;;;;;;44.25;35.75;;;;;;;;5070463;28;8832;-75
2020/12/28 00:13:29;;;;;;;;;50.50;41.50;;;;;;;;5070566;28;8833;-75
2020/12/28 00:15:55;;;;;;;;;47.75;42.00;;;;;;;;5070286;28;8840;-76
2020/12/28 00:18:21;;;;;;;;;59.00;46.75;;;;;;;;5070475;28;8841;-75
2020/12/28 00:20:50;;;;;;;;;56.75;46.50;;;;;;;;5070267;28;8840;-74
2020/12/28 00:23:16;;;;;;;;;52.75;44.75;;;;;;;;5070160;28;8833;-74
2020/12/28 00:25:42;;;;;;;;;60.25;47.25;;;;;;;;5069842;28;8822;-76
2020/12/28 00:28:08;;;;;;;;;65.25;50.50;;;;;;;;5070021;28;8829;-76
2020/12/28 00:30:34;;;;;;;;;61.25;51.00;;;;;;;;5069737;28;8813;-76
2020/12/28 00:33:00;;;;;;;;;62.00;51.00;;;;;;;;5070141;28;8821;-76
2020/12/28 00:35:26;;;;;;;;;64.50;51.25;;;;;;;;5069984;28;9614;-76
2020/12/28 00:37:52;;;;;;;;;65.25;51.50;;;;;;;;5069972;28;8818;-76
2020/12/28 00:40:18;;;;;;;;;63.00;50.75;;;;;;;;5069935;28;8930;-76
2020/12/28 00:42:44;;;;;;;;;59.75;50.00;;;;;;;;5069932;28;9004;-76
2020/12/28 00:45:10;;;;;;;;;40.25;32.25;;;;;;;;5067525;28;8847;-74
2020/12/28 00:47:36;;;;;;;;;60.25;49.00;;;;;;;;5064063;28;8828;-75
2020/12/28 00:50:03;;;;;;;;;62.25;50.00;;;;;;;;5066075;28;8846;-75
2020/12/28 00:52:29;;;;;;;;;64.75;52.00;;;;;;;;5069930;28;9596;-76
2020/12/28 00:54:58;;;;;;;;;62.25;50.25;;;;;;;;5069566;28;8853;-76
2020/12/28 00:57:24;;;;;;;;;60.00;50.50;;;;;;;;5070040;28;8861;-76
2020/12/28 00:59:50;;;;;;;;;59.50;48.50;;;;;;;;5057501;28;8844;-76
2020/12/28 01:02:16;;;;;;;;;55.75;47.75;;;;;;;;5057466;28;8841;-74
2020/12/28 01:04:41;;;;;;;;;56.00;47.25;;;;;;;;5065695;28;9006;-75
2020/12/28 01:07:07;;;;;;;;;60.50;48.50;;;;;;;;5069739;28;9563;-75
2020/12/28 01:09:33;;;;;;;;;60.50;49.00;;;;;;;;5063999;28;8841;-73
2020/12/28 01:12:00;;;;;;;;;59.50;50.00;;;;;;;;5067088;28;8847;-75
2020/12/28 01:14:26;;;;;;;;;64.50;52.25;;;;;;;;5061410;28;8962;-74
2020/12/28 01:16:52;;;;;;;;;62.75;50.75;;;;;;;;5065638;28;8848;-75
2020/12/28 01:19:18;;;;;;;;;64.50;50.75;;;;;;;;5065500;28;8822;-74
2020/12/28 01:21:44;;;;;;;;;66.25;52.00;;;;;;;;5062480;28;8849;-75
2020/12/28 01:24:10;;;;;;;;;63.50;51.25;;;;;;;;5064368;28;8826;-77
2020/12/28 01:26:36;;;;;;;;;66.50;55.25;;;;;;;;5059569;28;8822;-74
2020/12/28 01:29:03;;;;;;;;;74.25;58.75;;;;;;;;5062942;28;8886;-76
2020/12/28 01:31:29;;;;;;;;;74.00;58.75;;;;;;;;5061530;28;8823;-76
2020/12/28 01:33:55;;;;;;;;;78.25;62.00;;;;;;;;5060880;28;8847;-76
2020/12/28 01:36:21;;;;;;;;;83.75;65.25;;;;;;;;5062019;28;8840;-74
2020/12/28 12:16:47;;;;;;;;;4.00;3.33;;;;;;;;5112142;27;13426;-78
2020/12/28 12:19:13;;;;;;;;;2.00;1.00;;;;;;;;5094773;28;8831;-73
2020/12/28 12:21:39;;;;;;;;;2.33;1.33;;;;;;;;5095637;28;11505;-70
2020/12/28 12:24:04;;;;;;;;;2.00;1.33;;;;;;;;5096754;28;9016;-72
2020/12/28 12:26:34;;;;;;;;;3.67;3.67;;;;;;;;5094137;28;8830;-71
2020/12/28 12:29:00;;;;;;;;;3.67;3.67;;;;;;;;5096666;28;8831;-71
2020/12/28 12:31:26;;;;;;;;;5.33;5.33;;;;;;;;5092660;28;11506;-70
2020/12/28 12:33:53;;;;;;;;;6.33;5.00;;;;;;;;5086672;28;8846;-72
2020/12/28 12:36:19;;;;;;;;;5.00;2.00;;;;;;;;5097340;28;11515;-71
2020/12/28 12:38:45;;;;;;;;;4.00;3.00;;;;;;;;5092613;28;12976;-73
2020/12/28 12:41:17;;;;;;;;;5.33;5.33;;;;;;;;5095004;28;8855;-69
2020/12/28 12:43:43;;;;;;;;;6.00;5.00;;;;;;;;5093871;28;12132;-67
2020/12/28 12:46:09;;;;;;;;;9.00;7.00;;;;;;;;5094937;28;11493;-68
2020/12/28 12:48:35;;;;;;;;;6.00;6.00;;;;;;;;5095399;28;8940;-68
2020/12/28 12:51:02;;;;;;;;;2.00;2.00;;;;;;;;5097921;28;11500;-68
2020/12/28 12:53:28;;;;;;;;;5.00;3.00;;;;;;;;5095385;28;11495;-69
2020/12/28 12:55:54;;;;;;;;;7.00;5.67;;;;;;;;5098542;28;11650;-68
2020/12/28 12:58:20;;;;;;;;;4.67;4.33;;;;;;;;5093185;28;8823;-68
2020/12/28 13:00:46;;;;;;;;;7.50;5.75;;;;;;;;5093772;28;8850;-69
2020/12/28 13:03:12;;;;;;;;;5.00;3.00;;;;;;;;5096394;28;8835;-69
2020/12/28 13:05:38;;;;;;;;;6.00;6.00;;;;;;;;5096432;28;11487;-70
2020/12/28 13:08:05;;;;;;;;;5.67;2.00;;;;;;;;5093387;28;11526;-71
2020/12/28 13:10:32;;;;;;;;;5.00;4.00;;;;;;;;5095356;28;8826;-73
2020/12/28 13:12:58;;;;;;;;;9.33;6.67;;;;;;;;5058150;28;11504;-69
2020/12/28 13:17:19;;;;;;;;;7.67;6.00;;;;;;;;5124630;27;13452;-71
2020/12/28 13:19:45;;;;;;;;;6.00;6.00;;;;;;;;5110041;27;11503;-68
2020/12/28 13:22:12;;;;;;;;;6.00;4.00;;;;;;;;5115116;27;11466;-69
2020/12/28 13:24:38;;;;;;;;;7.33;7.33;;;;;;;;5116502;27;11478;-68
2020/12/28 13:27:04;;;;;;;;;7.67;6.00;;;;;;;;5111327;27;11587;-67
2020/12/28 13:29:30;;;;;;;;;3.25;3.25;;;;;;;;5112686;27;11530;-68
2020/12/28 13:31:56;;;;;;;;;6.00;6.00;;;;;;;;5109063;28;11476;-68
2020/12/28 13:34:23;;;;;;;;;7.00;7.00;;;;;;;;5108964;28;11471;-71
2020/12/28 13:36:49;;;;;;;;;11.00;6.00;;;;;;;;5107672;28;8851;-70
2020/12/28 13:39:15;;;;;;;;;12.67;8.00;;;;;;;;5106724;28;12242;-71
2020/12/28 13:41:41;;;;;;;;;6.33;6.33;;;;;;;;5106981;28;11485;-70
2020/12/28 13:44:07;;;;;;;;;6.33;6.33;;;;;;;;5107025;28;8836;-71
2020/12/28 13:46:33;;;;;;;;;6.25;6.00;;;;;;;;5106689;28;8836;-71
2020/12/28 13:48:59;;;;;;;;;7.00;7.00;;;;;;;;5106846;28;8844;-70
2020/12/28 13:51:26;;;;;;;;;7.00;7.00;;;;;;;;5106911;28;8928;-68
2020/12/28 13:53:52;;;;;;;;;7.25;6.00;;;;;;;;5106750;28;11590;-71
2020/12/28 13:56:19;;;;;;;;;6.00;5.67;;;;;;;;5106385;28;12312;-72
2020/12/28 13:58:45;;;;;;;;;8.00;7.00;;;;;;;;5106535;28;11497;-72
2020/12/28 14:01:11;;;;;;;;;11.00;6.33;;;;;;;;5106104;28;11494;-72
2020/12/28 14:03:38;;;;;;;;;8.00;6.33;;;;;;;;5103310;28;12364;-73
2020/12/28 14:06:07;;;;;;;;;7.25;6.00;;;;;;;;5104478;27;11534;-72
2020/12/28 14:08:35;;;;;;;;;9.00;6.00;;;;;;;;5103896;28;11485;-70
2020/12/28 14:11:01;;;;;;;;;7.00;5.75;;;;;;;;5053834;27;11471;-71
2020/12/28 14:13:27;;;;;;;;;8.00;8.00;;;;;;;;5055371;28;11520;-75
2020/12/28 14:15:53;;;;;;;;;9.75;9.75;;;;;;;;5051484;28;11547;-71
2020/12/28 14:18:19;;;;;;;;;8.00;7.00;;;;;;;;5054701;28;11550;-71
2020/12/28 14:20:45;;;;;;;;;12.50;10.75;;;;;;;;5049603;28;8934;-70
2020/12/28 14:23:10;;;;;;;;;14.75;12.25;;;;;;;;5054217;28;8932;-71
2020/12/28 14:25:37;;;;;;;;;12.50;9.50;;;;;;;;5051861;28;8866;-69
2020/12/28 14:28:03;;;;;;;;;13.25;11.00;;;;;;;;5040586;28;8872;-69
2020/12/28 14:30:29;;;;;;;;;9.75;8.50;;;;;;;;5038096;28;11568;-72
2020/12/28 14:32:55;;;;;;;;;10.75;8.00;;;;;;;;5041050;28;9679;-72
2020/12/28 14:35:21;;;;;;;;;11.25;10.25;;;;;;;;5035489;28;11544;-72
2020/12/28 14:37:47;;;;;;;;;8.75;7.25;;;;;;;;5040812;28;9558;-72
2020/12/28 14:40:13;;;;;;;;;6.00;6.00;;;;;;;;5038741;28;9562;-71
2020/12/28 14:42:40;;;;;;;;;6.50;5.50;;;;;;;;5040634;28;8840;-72
2020/12/28 14:45:06;;;;;;;;;7.75;4.50;;;;;;;;5041010;28;8837;-72
2020/12/28 14:47:32;;;;;;;;;9.75;7.00;;;;;;;;5036786;28;11512;-70
2020/12/28 14:49:58;;;;;;;;;7.25;6.00;;;;;;;;5040477;28;8875;-72
2020/12/28 14:52:24;;;;;;;;;8.25;6.75;;;;;;;;5036435;28;8854;-75
2020/12/28 14:54:50;;;;;;;;;8.00;6.00;;;;;;;;5047491;28;8879;-74
2020/12/28 14:57:16;;;;;;;;;6.25;6.00;;;;;;;;5043761;28;8963;-74
2020/12/28 14:59:43;;;;;;;;;8.00;6.50;;;;;;;;5046851;28;8870;-73
2020/12/28 15:02:09;;;;;;;;;7.25;5.50;;;;;;;;5045373;28;8873;-73
2020/12/28 15:04:35;;;;;;;;;12.00;7.00;;;;;;;;5047268;28;12267;-76
2020/12/28 15:07:01;;;;;;;;;11.00;7.00;;;;;;;;5044833;28;11584;-77
2020/12/28 15:09:27;;;;;;;;;8.25;8.25;;;;;;;;5043918;28;9671;-78
2020/12/28 15:11:53;;;;;;;;;9.00;9.00;;;;;;;;5044670;28;9561;-73
2020/12/28 15:14:19;;;;;;;;;9.50;9.25;;;;;;;;5038996;28;8938;-74
2020/12/28 15:16:45;;;;;;;;;10.75;9.00;;;;;;;;5036564;28;8891;-73
2020/12/28 15:19:11;;;;;;;;;9.00;6.75;;;;;;;;5038590;28;8844;-73
2020/12/28 15:21:37;;;;;;;;;9.25;6.50;;;;;;;;5036447;28;11524;-74
2020/12/28 15:24:03;;;;;;;;;7.00;7.00;;;;;;;;5042596;28;11532;-72
2020/12/28 15:26:31;;;;;;;;;8.00;7.00;;;;;;;;5039964;28;9628;-76
2020/12/28 15:28:56;;;;;;;;;8.25;7.00;;;;;;;;5035227;28;8828;-74
2020/12/28 15:31:22;;;;;;;;;8.75;8.75;;;;;;;;5041901;28;11652;-74
2020/12/28 15:33:49;;;;;;;;;8.00;8.00;;;;;;;;5040643;28;8885;-74
2020/12/28 15:36:15;;;;;;;;;11.50;11.50;;;;;;;;5039235;28;9048;-74
2020/12/28 15:38:41;;;;;;;;;12.00;10.00;;;;;;;;5039435;28;11527;-75
2020/12/28 15:41:07;;;;;;;;;14.25;11.00;;;;;;;;5041490;28;11583;-73
2020/12/28 15:43:34;;;;;;;;;8.00;7.75;;;;;;;;5039701;28;8886;-73
2020/12/28 15:46:00;;;;;;;;;13.00;9.50;;;;;;;;5042884;28;9581;-73
2020/12/28 15:48:26;;;;;;;;;9.25;9.25;;;;;;;;5032086;28;11595;-79
2020/12/28 15:50:52;;;;;;;;;8.50;7.00;;;;;;;;5041872;28;8873;-76
2020/12/28 15:53:18;;;;;;;;;8.00;7.00;;;;;;;;5043272;28;11541;-75
2020/12/28 15:55:45;;;;;;;;;10.25;7.00;;;;;;;;5044183;28;11687;-72
2020/12/28 15:58:11;;;;;;;;;9.00;7.50;;;;;;;;5043391;28;8861;-72
2020/12/28 16:00:37;;;;;;;;;8.00;8.00;;;;;;;;5041736;28;11592;-73
2020/12/28 16:03:03;;;;;;;;;11.50;9.00;;;;;;;;5038142;28;11541;-74
2020/12/28 16:05:29;;;;;;;;;7.50;7.25;;;;;;;;5039497;28;11523;-73
2020/12/28 16:07:56;;;;;;;;;13.00;12.00;;;;;;;;5037969;28;12301;-70
2020/12/28 16:10:22;;;;;;;;;21.33;16.00;;;;;;;;5038436;28;8852;-70
2020/12/28 16:12:48;;;;;;;;;16.67;11.67;;;;;;;;5033751;28;11599;-73
2020/12/28 16:15:14;;;;;;;;;15.67;13.67;;;;;;;;5038418;28;11587;-70
2020/12/28 16:17:40;;;;;;;;;13.00;12.67;;;;;;;;5038311;28;11624;-71
2020/12/28 16:20:06;;;;;;;;;12.00;12.00;;;;;;;;5040031;28;11593;-69
2020/12/28 16:22:32;;;;;;;;;11.50;9.50;;;;;;;;5034269;28;11634;-70
2020/12/28 16:25:00;;;;;;;;;12.00;12.00;;;;;;;;5038396;28;11624;-70
2020/12/28 16:27:25;;;;;;;;;10.50;10.00;;;;;;;;5037194;28;11745;-71
2020/12/28 16:29:51;;;;;;;;;16.00;12.00;;;;;;;;5037905;28;11571;-71
2020/12/28 16:32:19;;;;;;;;;13.00;12.00;;;;;;;;5035543;28;9699;-71
2020/12/28 16:34:45;;;;;;;;;12.33;11.00;;;;;;;;5043667;28;8849;-71
2020/12/28 16:37:11;;;;;;;;;13.67;12.67;;;;;;;;5040329;28;12288;-69
2020/12/28 16:39:37;;;;;;;;;14.33;14.33;;;;;;;;5039725;28;11662;-69
2020/12/28 16:42:04;;;;;;;;;12.33;12.33;;;;;;;;5039230;28;11691;-70
2020/12/28 16:44:30;;;;;;;;;17.00;17.00;;;;;;;;5036969;28;8848;-69
2020/12/28 16:46:56;;;;;;;;;17.67;17.00;;;;;;;;5033064;28;8828;-71
2020/12/28 16:49:23;;;;;;;;;16.67;15.67;;;;;;;;5033871;28;11586;-73
2020/12/28 16:51:49;;;;;;;;;12.33;11.00;;;;;;;;5037603;28;8966;-70
2020/12/28 16:54:15;;;;;;;;;13.00;12.67;;;;;;;;5028968;28;11610;-71
2020/12/28 16:56:41;;;;;;;;;8.67;8.67;;;;;;;;5031207;28;11574;-70
2020/12/28 16:59:08;;;;;;;;;14.33;14.33;;;;;;;;5030519;28;8865;-73
2020/12/28 17:01:34;;;;;;;;;14.00;13.00;;;;;;;;5036941;28;8830;-70
2020/12/28 17:04:00;;;;;;;;;16.00;14.00;;;;;;;;5031333;28;11561;-68
2020/12/28 17:06:26;;;;;;;;;17.33;16.00;;;;;;;;5037842;28;11583;-68
2020/12/28 17:08:52;;;;;;;;;18.67;17.67;;;;;;;;5038753;28;8876;-68
2020/12/28 17:11:19;;;;;;;;;17.00;16.00;;;;;;;;5036905;28;8885;-69
2020/12/28 17:13:45;;;;;;;;;20.00;17.00;;;;;;;;5031630;28;8856;-70
2020/12/28 17:16:14;;;;;;;;;21.67;17.67;;;;;;;;5029853;28;11627;-68
2020/12/28 17:18:40;;;;;;;;;19.33;18.00;;;;;;;;5028293;28;8828;-68
2020/12/28 17:21:09;;;;;;;;;18.33;16.33;;;;;;;;5030162;28;11599;-69
2020/12/28 17:23:35;;;;;;;;;12.67;12.67;;;;;;;;5030925;28;11588;-69
2020/12/28 17:26:05;;;;;;;;;19.67;17.00;;;;;;;;5031095;28;11686;-76
2020/12/28 17:28:31;;;;;;;;;16.67;16.67;;;;;;;;5032815;28;9505;-75
2020/12/28 17:30:57;;;;;;;;;21.67;17.67;;;;;;;;5032245;28;8844;-75
2020/12/28 17:33:25;;;;;;;;;19.33;15.33;;;;;;;;5039538;28;8968;-76
2020/12/28 17:35:51;;;;;;;;;22.33;18.33;;;;;;;;5037370;28;8848;-75
2020/12/28 17:38:17;;;;;;;;;18.67;17.33;;;;;;;;5038124;28;8856;-80
2020/12/28 17:40:43;;;;;;;;;23.67;21.33;;;;;;;;5037865;28;8860;-70
2020/12/28 17:43:09;;;;;;;;;25.33;22.00;;;;;;;;5031860;28;9606;-70
2020/12/28 17:45:35;;;;;;;;;28.67;28.00;;;;;;;;5038906;28;8879;-70
2020/12/28 17:48:01;;;;;;;;;26.67;24.33;;;;;;;;5035805;28;8864;-71
2020/12/28 17:50:28;;;;;;;;;30.00;25.67;;;;;;;;5027462;28;8974;-70
2020/12/28 17:52:55;;;;;;;;;27.67;26.00;;;;;;;;5035536;28;8938;-70
2020/12/28 17:55:21;;;;;;;;;21.67;20.00;;;;;;;;5035975;28;8875;-69
2020/12/28 17:57:47;;;;;;;;;23.00;18.33;;;;;;;;5039022;28;8837;-69
2020/12/28 18:00:13;;;;;;;;;28.00;23.33;;;;;;;;5043115;28;8865;-69
2020/12/28 18:02:39;;;;;;;;;20.67;18.67;;;;;;;;5047593;28;9706;-69
2020/12/28 18:05:05;;;;;;;;;21.33;17.67;;;;;;;;5049529;28;8853;-69
2020/12/28 18:07:32;;;;;;;;;12.67;12.00;;;;;;;;5046778;28;8903;-69
2020/12/28 18:10:01;;;;;;;;;31.00;26.33;;;;;;;;5036306;28;8841;-68
2020/12/28 18:12:27;;;;;;;;;23.00;21.33;;;;;;;;5045404;28;8904;-68
2020/12/28 18:14:53;;;;;;;;;21.00;18.67;;;;;;;;5047823;28;8892;-68
2020/12/28 18:17:22;;;;;;;;;22.67;18.00;;;;;;;;5048490;28;8856;-68
2020/12/28 18:19:48;;;;;;;;;20.00;18.00;;;;;;;;5036044;28;8950;-69
2020/12/28 18:22:14;;;;;;;;;21.33;16.67;;;;;;;;5033555;28;8849;-68
2020/12/28 18:24:41;;;;;;;;;22.33;21.00;;;;;;;;5036625;28;8871;-67
2020/12/28 18:27:08;;;;;;;;;23.33;22.00;;;;;;;;5033795;28;8837;-67
2020/12/28 18:29:34;;;;;;;;;23.67;22.00;;;;;;;;5036407;28;8852;-66
2020/12/28 18:32:00;;;;;;;;;25.67;23.67;;;;;;;;5035298;28;8849;-67
2020/12/28 18:34:26;;;;;;;;;20.33;17.67;;;;;;;;5036946;28;8868;-68
2020/12/28 18:36:52;;;;;;;;;29.33;24.00;;;;;;;;5039113;28;8866;-67
2020/12/28 18:39:18;;;;;;;;;23.33;21.00;;;;;;;;5034755;28;8896;-67
2020/12/28 18:41:45;;;;;;;;;21.00;21.00;;;;;;;;5036319;28;8880;-68
2020/12/28 18:44:12;;;;;;;;;20.00;19.33;;;;;;;;5036125;28;8926;-67
2020/12/28 18:46:38;;;;;;;;;22.00;18.00;;;;;;;;5029721;28;8954;-69
2020/12/28 18:49:04;;;;;;;;;12.67;12.67;;;;;;;;5029438;28;8837;-68
2020/12/28 18:51:30;;;;;;;;;17.33;16.00;;;;;;;;5027398;28;8863;-69
2020/12/28 18:53:57;;;;;;;;;19.00;17.67;;;;;;;;5033404;28;8838;-68
2020/12/28 18:56:23;;;;;;;;;19.00;15.67;;;;;;;;5039424;28;8904;-68
2020/12/28 18:58:50;;;;;;;;;18.33;17.33;;;;;;;;5037284;28;8889;-68
2020/12/28 19:01:16;;;;;;;;;31.67;30.33;;;;;;;;5036307;28;8856;-67
2020/12/28 19:03:41;;;;;;;;;22.33;21.00;;;;;;;;5042279;28;8873;-68
2020/12/28 19:06:09;;;;;;;;;19.33;19.33;;;;;;;;5036136;28;8824;-68
2020/12/28 19:08:35;;;;;;;;;22.00;22.00;;;;;;;;5040232;28;9695;-68
2020/12/28 19:11:01;;;;;;;;;20.00;18.33;;;;;;;;5035958;28;8844;-68
2020/12/28 19:13:28;;;;;;;;;15.33;13.67;;;;;;;;5039985;28;8867;-69
2020/12/28 19:15:55;;;;;;;;;14.67;12.00;;;;;;;;5035512;28;8840;-68
2020/12/28 19:18:21;;;;;;;;;10.75;10.75;;;;;;;;5038003;28;11580;-68
2020/12/28 19:20:47;;;;;;;;;10.67;10.67;;;;;;;;5030451;28;12176;-68
2020/12/28 19:23:13;;;;;;;;;10.00;10.00;;;;;;;;5036358;28;8886;-68
2020/12/28 19:25:39;;;;;;;;;9.33;9.33;;;;;;;;5042116;28;8869;-68
2020/12/28 19:28:05;;;;;;;;;8.67;8.67;;;;;;;;5037942;28;8884;-68
2020/12/28 19:30:31;;;;;;;;;7.67;7.67;;;;;;;;5042487;28;8856;-75
2020/12/28 19:32:57;;;;;;;;;8.00;8.00;;;;;;;;5035918;28;8834;-74
2020/12/28 19:35:23;;;;;;;;;9.67;8.67;;;;;;;;5039998;28;8863;-78
2020/12/28 19:37:50;;;;;;;;;7.33;7.33;;;;;;;;5042231;28;11570;-73
2020/12/28 19:40:16;;;;;;;;;6.00;6.00;;;;;;;;5040450;28;8873;-73
2020/12/28 19:42:42;;;;;;;;;10.00;7.67;;;;;;;;5041541;28;11514;-72
2020/12/28 19:45:08;;;;;;;;;7.00;7.00;;;;;;;;5040250;28;9641;-72
2020/12/28 19:47:34;;;;;;;;;8.00;8.00;;;;;;;;5042455;28;8915;-72
2020/12/28 19:50:02;;;;;;;;;10.00;8.00;;;;;;;;5039050;28;11541;-69
2020/12/28 19:52:28;;;;;;;;;10.00;8.00;;;;;;;;5035813;28;8821;-68
2020/12/28 19:54:54;;;;;;;;;10.00;7.00;;;;;;;;5036613;28;11556;-72
2020/12/28 19:57:20;;;;;;;;;9.67;7.67;;;;;;;;5035582;28;11532;-71
2020/12/28 19:59:47;;;;;;;;;7.33;6.33;;;;;;;;5039793;28;9509;-71
2020/12/28 20:02:13;;;;;;;;;9.33;7.67;;;;;;;;5038801;28;8837;-72
2020/12/28 20:04:39;;;;;;;;;7.00;7.00;;;;;;;;5038270;28;11536;-72
2020/12/28 20:07:06;;;;;;;;;16.67;12.33;;;;;;;;5036581;28;8844;-71
2020/12/28 20:09:34;;;;;;;;;11.00;11.00;;;;;;;;5036638;28;11555;-70
2020/12/28 20:12:00;;;;;;;;;12.33;11.67;;;;;;;;5037533;28;11670;-73
2020/12/28 20:14:26;;;;;;;;;10.33;10.33;;;;;;;;5040577;28;11628;-70
2020/12/28 20:16:52;;;;;;;;;11.67;10.67;;;;;;;;5033229;28;8870;-69
2020/12/28 20:19:18;;;;;;;;;10.33;10.33;;;;;;;;5038623;28;8841;-69
2020/12/28 20:21:44;;;;;;;;;18.67;13.67;;;;;;;;5040559;28;9654;-70
2020/12/28 20:24:10;;;;;;;;;14.67;14.67;;;;;;;;5041929;28;11546;-70
2020/12/28 20:26:36;;;;;;;;;11.33;10.33;;;;;;;;5036973;28;9630;-70
2020/12/28 20:29:02;;;;;;;;;16.67;13.00;;;;;;;;5038469;28;11556;-68
2020/12/28 20:31:28;;;;;;;;;15.33;12.33;;;;;;;;5038307;28;12296;-69
2020/12/28 20:33:55;;;;;;;;;12.33;12.33;;;;;;;;5035823;28;8868;-68
2020/12/28 20:36:23;;;;;;;;;12.67;12.00;;;;;;;;5038642;28;9012;-69
2020/12/28 20:38:52;;;;;;;;;14.33;13.33;;;;;;;;5040401;28;11591;-70
2020/12/28 20:41:19;;;;;;;;;15.33;12.33;;;;;;;;5040563;28;11602;-69
2020/12/28 20:43:45;;;;;;;;;15.00;14.33;;;;;;;;5038286;28;11596;-68
2020/12/28 20:46:11;;;;;;;;;16.33;13.00;;;;;;;;5036876;28;11596;-69
2020/12/28 20:48:37;;;;;;;;;18.67;12.33;;;;;;;;5043339;28;8868;-69
2020/12/28 20:51:03;;;;;;;;;14.33;12.67;;;;;;;;5039277;28;12413;-69
2020/12/28 20:53:29;;;;;;;;;13.00;11.00;;;;;;;;5040502;28;11502;-69
2020/12/28 20:55:55;;;;;;;;;12.00;11.00;;;;;;;;5036645;28;8868;-69
2020/12/28 20:58:25;;;;;;;;;9.25;8.25;;;;;;;;5044187;28;8896;-69
2020/12/28 21:00:51;;;;;;;;;7.25;6.00;;;;;;;;5040901;28;12213;-68
2020/12/28 21:03:17;;;;;;;;;10.00;9.25;;;;;;;;5038709;28;11541;-70
2020/12/28 21:05:43;;;;;;;;;9.75;9.75;;;;;;;;5035966;28;8852;-68
2020/12/28 21:08:09;;;;;;;;;10.00;8.00;;;;;;;;5034197;28;12415;-68
2020/12/28 21:10:36;;;;;;;;;8.00;6.75;;;;;;;;5037912;28;11495;-69
2020/12/28 21:13:02;;;;;;;;;7.50;6.25;;;;;;;;5035973;28;11512;-68
2020/12/28 21:15:29;;;;;;;;;5.50;5.50;;;;;;;;5036380;28;11521;-69
2020/12/28 21:17:55;;;;;;;;;6.00;5.33;;;;;;;;5036031;28;11499;-68
2020/12/28 21:20:21;;;;;;;;;6.00;5.00;;;;;;;;5037127;28;11549;-70
2020/12/28 21:22:49;;;;;;;;;5.00;2.25;;;;;;;;5002273;28;11503;-69
2020/12/28 21:25:15;;;;;;;;;5.67;3.00;;;;;;;;5037178;28;8845;-69
2020/12/28 21:27:41;;;;;;;;;7.00;4.33;;;;;;;;5037878;28;11565;-69
2020/12/28 21:30:10;;;;;;;;;5.67;5.67;;;;;;;;5038285;28;9593;-68
2020/12/28 21:32:37;;;;;;;;;6.00;5.75;;;;;;;;5036336;28;11663;-68
2020/12/28 21:35:03;;;;;;;;;6.33;5.00;;;;;;;;5038377;28;12322;-68
2020/12/28 21:37:31;;;;;;;;;5.75;3.00;;;;;;;;5042921;28;11487;-69
2020/12/28 21:39:57;;;;;;;;;2.75;2.75;;;;;;;;5035158;28;11592;-71
2020/12/28 21:42:25;;;;;;;;;4.00;3.00;;;;;;;;5042162;28;11483;-70
2020/12/28 21:44:51;;;;;;;;;3.00;2.00;;;;;;;;5049869;28;8934;-69
2020/12/28 21:47:17;;;;;;;;;3.00;2.00;;;;;;;;5049435;28;11531;-69
2020/12/28 21:49:44;;;;;;;;;2.00;2.00;;;;;;;;5050194;28;8846;-68
2020/12/28 21:52:10;;;;;;;;;2.50;2.50;;;;;;;;5048817;28;8877;-70
2020/12/28 21:54:36;;;;;;;;;1.75;1.50;;;;;;;;5049813;28;11541;-69
2020/12/28 21:57:02;;;;;;;;;3.00;2.00;;;;;;;;5043944;28;8979;-69
2020/12/28 21:59:28;;;;;;;;;9.33;1.67;;;;;;;;5051694;28;8853;-69
2020/12/28 22:01:54;;;;;;;;;2.50;1.00;;;;;;;;5044990;28;11530;-69
2020/12/28 22:04:20;;;;;;;;;5.00;1.00;;;;;;;;5043948;28;8875;-68
2020/12/28 22:06:47;;;;;;;;;5.00;1.00;;;;;;;;5042566;28;11492;-68
2020/12/28 22:09:13;;;;;;;;;0.33;0.33;;;;;;;;5042675;28;9600;-67
2020/12/28 22:11:46;;;;;;;;;0.00;0.00;;;;;;;;5043497;28;11598;-68
2020/12/28 22:14:14;;;;;;;;;0.67;0.67;;;;;;;;5042164;28;11678;-68
2020/12/28 22:16:40;;;;;;;;;0.00;0.00;;;;;;;;5042972;28;11618;-68
2020/12/28 22:19:06;;;;;;;;;2.50;2.00;;;;;;;;5041407;28;12231;-68
2020/12/28 22:21:32;;;;;;;;;2.00;1.00;;;;;;;;5044164;28;8838;-68
2020/12/28 22:23:58;;;;;;;;;2.00;1.00;;;;;;;;5040785;28;8840;-68
2020/12/28 22:26:24;;;;;;;;;1.25;1.00;;;;;;;;5044349;28;8830;-68
2020/12/28 22:28:51;;;;;;;;;2.00;2.00;;;;;;;;5041245;28;11545;-68
2020/12/28 22:31:18;;;;;;;;;2.75;2.00;;;;;;;;5042818;28;8832;-68
2020/12/28 22:33:44;;;;;;;;;1.00;1.00;;;;;;;;5042041;28;12227;-69
2020/12/28 22:36:11;;;;;;;;;0.00;0.00;;;;;;;;5041926;28;11533;-68
2020/12/28 22:38:37;;;;;;;;;2.25;2.25;;;;;;;;5043402;28;11492;-68
2020/12/28 22:41:04;;;;;;;;;3.50;2.25;;;;;;;;5040590;28;11574;-68
2020/12/28 22:43:30;;;;;;;;;1.75;1.00;;;;;;;;5044068;28;8853;-68
2020/12/28 22:45:56;;;;;;;;;2.00;1.00;;;;;;;;5040755;28;11526;-69
2020/12/28 22:48:22;;;;;;;;;1.00;1.00;;;;;;;;5042798;28;8946;-68
2020/12/28 22:50:48;;;;;;;;;2.50;2.00;;;;;;;;5041243;28;8870;-68
2020/12/28 22:53:14;;;;;;;;;2.00;1.00;;;;;;;;5042475;28;8851;-68
2020/12/28 22:55:42;;;;;;;;;1.00;1.00;;;;;;;;5042261;28;11619;-68
2020/12/28 22:58:08;;;;;;;;;4.50;2.75;;;;;;;;5041345;28;8848;-68
2020/12/28 23:00:36;;;;;;;;;1.00;1.00;;;;;;;;5042895;28;11505;-69
2020/12/28 23:03:02;;;;;;;;;6.75;1.00;;;;;;;;5040326;28;12279;-68
2020/12/28 23:05:28;;;;;;;;;2.50;1.50;;;;;;;;5043562;28;11479;-68
2020/12/28 23:07:53;;;;;;;;;4.25;2.00;;;;;;;;5043779;28;8818;-68
2020/12/28 23:10:19;;;;;;;;;0.75;0.25;;;;;;;;5040686;28;9677;-67
2020/12/28 23:12:45;;;;;;;;;2.00;0.50;;;;;;;;5042230;28;8872;-69
2020/12/28 23:15:12;;;;;;;;;0.00;0.00;;;;;;;;5041503;28;8853;-68
2020/12/28 23:17:38;;;;;;;;;1.00;1.00;;;;;;;;5041037;28;8871;-69
2020/12/28 23:20:04;;;;;;;;;2.50;1.00;;;;;;;;5042686;28;12223;-68
2020/12/28 23:22:30;;;;;;;;;3.00;1.00;;;;;;;;5040161;28;8868;-68
2020/12/28 23:24:56;;;;;;;;;3.00;1.00;;;;;;;;5043105;28;11535;-68
2020/12/28 23:27:22;;;;;;;;;0.25;0.25;;;;;;;;5040243;28;8985;-68
2020/12/28 23:29:48;;;;;;;;;3.00;0.50;;;;;;;;5042634;28;8856;-68
2020/12/28 23:32:15;;;;;;;;;2.75;1.00;;;;;;;;5040955;28;8861;-68
2020/12/28 23:34:41;;;;;;;;;0.00;0.00;;;;;;;;5041520;28;8844;-68
2020/12/28 23:37:07;;;;;;;;;1.50;1.00;;;;;;;;5041682;28;11490;-68
2020/12/28 23:39:33;;;;;;;;;1.00;1.00;;;;;;;;5040045;28;11507;-68
2020/12/28 23:41:59;;;;;;;;;1.00;1.00;;;;;;;;5042936;28;11586;-68
2020/12/28 23:44:25;;;;;;;;;1.00;0.25;;;;;;;;5039736;28;8979;-68
2020/12/28 23:46:51;;;;;;;;;1.75;1.00;;;;;;;;5042613;28;8825;-67
2020/12/28 23:49:18;;;;;;;;;3.00;2.00;;;;;;;;5042454;28;11617;-68
2020/12/28 23:51:44;;;;;;;;;2.00;1.00;;;;;;;;5040459;28;11506;-68
2020/12/28 23:54:10;;;;;;;;;0.75;0.75;;;;;;;;5040550;28;11558;-68
2020/12/28 23:56:37;;;;;;;;;1.00;1.00;;;;;;;;5041838;28;8849;-68
2020/12/28 23:59:04;;;;;;;;;0.50;0.25;;;;;;;;5039327;28;8875;-68
